createdAt,value
2019-03-08T00:00:34.050Z,7.49
2019-03-08T00:01:43.783Z,7.49
2019-03-08T00:02:50.789Z,7.49
2019-03-08T00:03:58.481Z,7.49
2019-03-08T00:05:06.458Z,7.48
2019-03-08T00:06:13.731Z,7.48
2019-03-08T00:07:22.381Z,7.47
2019-03-08T00:08:30.520Z,7.45
2019-03-08T00:09:37.534Z,7.45
2019-03-08T00:10:45.032Z,7.43
2019-03-08T00:11:52.199Z,7.44
2019-03-08T00:13:00.232Z,7.44
2019-03-08T00:14:07.090Z,7.42
2019-03-08T00:15:14.679Z,7.42
2019-03-08T00:16:22.176Z,7.45
2019-03-08T00:17:28.429Z,7.48
2019-03-08T00:18:34.674Z,7.48
2019-03-08T00:19:42.953Z,7.48
2019-03-08T00:20:50.877Z,7.48
2019-03-08T00:21:59.287Z,7.48
2019-03-08T00:23:07.326Z,7.47
2019-03-08T00:24:13.594Z,7.47
2019-03-08T00:25:20.608Z,7.49
2019-03-08T00:26:27.636Z,7.50
2019-03-08T00:27:36.080Z,7.51
2019-03-08T00:28:43.425Z,7.49
2019-03-08T00:29:50.502Z,7.47
2019-03-08T00:30:58.809Z,7.46
2019-03-08T00:32:05.898Z,7.43
2019-03-08T00:33:13.863Z,7.42
2019-03-08T00:34:20.293Z,7.39
2019-03-08T00:35:29.142Z,7.35
2019-03-08T00:36:38.491Z,7.33
2019-03-08T00:37:45.858Z,7.29
2019-03-08T00:38:54.043Z,7.25
2019-03-08T00:40:01.494Z,7.22
2019-03-08T00:41:08.999Z,7.20
2019-03-08T00:42:15.839Z,7.16
2019-03-08T00:43:22.785Z,7.13
2019-03-08T00:44:29.835Z,7.20
2019-03-08T00:45:38.550Z,7.22
2019-03-08T00:46:46.038Z,7.24
2019-03-08T00:47:54.102Z,7.26
2019-03-08T00:49:01.099Z,7.26
2019-03-08T00:50:10.529Z,7.27
2019-03-08T00:51:17.672Z,7.29
2019-03-08T00:52:23.745Z,7.28
2019-03-08T00:53:30.840Z,7.27
2019-03-08T00:54:40.879Z,7.25
2019-03-08T00:55:47.513Z,7.24
2019-03-08T00:56:54.600Z,7.23
2019-03-08T00:58:02.101Z,7.25
2019-03-08T00:59:09.236Z,7.24
2019-03-08T01:00:19.874Z,7.25
2019-03-08T01:01:27.858Z,7.26
2019-03-08T01:02:35.946Z,7.26
2019-03-08T01:03:42.676Z,7.25
2019-03-08T01:04:49.852Z,7.26
2019-03-08T01:05:56.638Z,7.26
2019-03-08T01:07:04.254Z,7.23
2019-03-08T01:08:11.143Z,7.22
2019-03-08T01:09:18.360Z,7.22
2019-03-08T01:10:27.733Z,7.23
2019-03-08T01:11:42.851Z,7.26
2019-03-08T01:12:49.768Z,7.28
2019-03-08T01:13:56.695Z,7.29
2019-03-08T01:15:04.320Z,7.31
2019-03-08T01:16:11.068Z,7.33
2019-03-08T01:17:18.334Z,7.34
2019-03-08T01:18:27.127Z,7.37
2019-03-08T01:19:34.316Z,7.38
2019-03-08T01:20:41.250Z,7.36
2019-03-08T01:21:48.239Z,7.35
2019-03-08T01:22:55.267Z,7.33
2019-03-08T01:24:01.786Z,7.34
2019-03-08T01:25:09.640Z,7.35
2019-03-08T01:26:18.822Z,7.36
2019-03-08T01:27:47.478Z,7.38
2019-03-08T01:28:55.045Z,7.36
2019-03-08T01:30:01.522Z,7.31
2019-03-08T01:31:08.774Z,7.33
2019-03-08T01:32:17.039Z,7.36
2019-03-08T01:33:23.784Z,7.35
2019-03-08T01:34:32.080Z,7.36
2019-03-08T01:35:39.774Z,7.37
2019-03-08T01:36:46.672Z,7.37
2019-03-08T01:37:54.089Z,7.36
2019-03-08T01:39:01.072Z,7.32
2019-03-08T01:40:10.934Z,7.30
2019-03-08T01:41:17.000Z,7.31
2019-03-08T01:42:24.384Z,7.30
2019-03-08T01:43:31.222Z,7.27
2019-03-08T01:44:38.869Z,7.26
2019-03-08T01:45:46.209Z,7.26
2019-03-08T01:46:52.977Z,7.25
2019-03-08T01:48:00.777Z,7.24
2019-03-08T01:49:09.935Z,7.25
2019-03-08T01:50:17.240Z,7.26
2019-03-08T01:51:25.769Z,7.26
2019-03-08T01:52:34.507Z,7.26
2019-03-08T01:53:41.710Z,7.25
2019-03-08T01:54:49.581Z,7.25
2019-03-08T01:55:56.740Z,7.25
2019-03-08T01:57:04.389Z,7.26
2019-03-08T01:58:11.771Z,7.24
2019-03-08T01:59:19.433Z,7.24
2019-03-08T02:00:27.041Z,7.24
2019-03-08T02:01:33.700Z,7.25
2019-03-08T02:02:41.088Z,7.26
2019-03-08T02:03:49.653Z,7.24
2019-03-08T02:04:56.726Z,7.21
2019-03-08T02:06:04.293Z,7.20
2019-03-08T02:07:11.392Z,7.18
2019-03-08T02:08:20.485Z,7.16
2019-03-08T02:09:29.846Z,7.15
2019-03-08T02:10:37.186Z,7.16
2019-03-08T02:11:45.094Z,7.14
2019-03-08T02:12:52.785Z,7.17
2019-03-08T02:14:02.978Z,7.16
2019-03-08T02:15:14.784Z,7.13
2019-03-08T02:16:21.610Z,7.14
2019-03-08T02:17:29.472Z,7.13
2019-03-08T02:18:37.354Z,7.13
2019-03-08T02:19:44.042Z,7.12
2019-03-08T02:20:52.338Z,7.09
2019-03-08T02:21:59.040Z,7.09
2019-03-08T02:23:08.112Z,7.07
2019-03-08T02:24:15.293Z,7.06
2019-03-08T02:25:23.055Z,7.07
2019-03-08T02:26:29.975Z,7.04
2019-03-08T02:27:37.643Z,7.02
2019-03-08T02:28:44.633Z,7.01
2019-03-08T02:29:53.509Z,7.00
2019-03-08T02:31:00.975Z,7.01
2019-03-08T02:32:08.421Z,7.01
2019-03-08T02:33:15.895Z,7.03
2019-03-08T02:34:23.620Z,7.03
2019-03-08T02:35:32.578Z,7.04
2019-03-08T02:36:39.782Z,7.06
2019-03-08T02:37:49.076Z,7.04
2019-03-08T02:38:56.367Z,7.05
2019-03-08T02:40:03.823Z,7.06
2019-03-08T02:41:12.135Z,7.07
2019-03-08T02:42:20.547Z,7.09
2019-03-08T02:43:29.058Z,7.08
2019-03-08T02:44:35.821Z,7.08
2019-03-08T02:45:42.802Z,7.08
2019-03-08T02:46:49.992Z,7.08
2019-03-08T02:47:57.422Z,7.09
2019-03-08T02:49:06.330Z,7.09
2019-03-08T02:50:13.000Z,7.08
2019-03-08T02:51:20.018Z,7.06
2019-03-08T02:52:28.582Z,7.05
2019-03-08T02:53:35.892Z,7.04
2019-03-08T02:54:43.193Z,7.04
2019-03-08T02:55:51.168Z,7.05
2019-03-08T02:56:59.530Z,7.05
2019-03-08T02:58:32.782Z,7.05
2019-03-08T02:59:39.486Z,7.07
2019-03-08T03:00:46.704Z,7.07
2019-03-08T03:01:53.550Z,7.05
2019-03-08T03:03:02.715Z,7.03
2019-03-08T03:04:09.702Z,7.02
2019-03-08T03:05:38.275Z,7.01
2019-03-08T03:06:45.543Z,7.01
2019-03-08T03:07:54.216Z,6.98
2019-03-08T03:09:01.811Z,6.97
2019-03-08T03:10:12.909Z,6.95
2019-03-08T03:11:20.119Z,6.95
2019-03-08T03:12:27.647Z,6.93
2019-03-08T03:13:34.759Z,6.93
2019-03-08T03:14:43.357Z,6.91
2019-03-08T03:15:50.055Z,6.88
2019-03-08T03:16:57.798Z,6.87
2019-03-08T03:18:04.430Z,6.86
2019-03-08T03:19:13.011Z,6.86
2019-03-08T03:20:22.722Z,6.86
2019-03-08T03:21:29.840Z,6.86
2019-03-08T03:22:36.567Z,6.85
2019-03-08T03:23:44.203Z,6.84
2019-03-08T03:24:50.889Z,6.86
2019-03-08T03:25:57.918Z,6.83
2019-03-08T03:27:04.949Z,6.83
2019-03-08T03:28:12.220Z,6.81
2019-03-08T03:29:19.434Z,6.79
2019-03-08T03:30:27.622Z,6.77
2019-03-08T03:31:34.337Z,6.75
2019-03-08T03:32:41.185Z,6.73
2019-03-08T03:33:48.361Z,6.73
2019-03-08T03:34:55.923Z,6.73
2019-03-08T03:36:03.218Z,6.74
2019-03-08T03:37:10.534Z,6.71
2019-03-08T03:38:17.086Z,6.68
2019-03-08T03:39:24.438Z,6.66
2019-03-08T03:40:51.736Z,6.67
2019-03-08T03:42:00.000Z,6.66
2019-03-08T03:43:07.522Z,6.66
2019-03-08T03:44:14.490Z,6.64
2019-03-08T03:45:24.242Z,6.63
2019-03-08T03:46:35.062Z,6.61
2019-03-08T03:47:43.268Z,6.60
2019-03-08T03:48:50.619Z,6.59
2019-03-08T03:49:59.362Z,6.59
2019-03-08T03:51:06.168Z,6.57
2019-03-08T03:52:13.015Z,6.55
2019-03-08T03:53:20.081Z,6.54
2019-03-08T03:54:28.221Z,6.56
2019-03-08T03:55:35.758Z,6.55
2019-03-08T03:56:43.406Z,6.56
2019-03-08T03:57:51.378Z,6.55
2019-03-08T03:58:59.202Z,6.54
2019-03-08T04:00:11.791Z,6.55
2019-03-08T04:01:22.372Z,6.55
2019-03-08T04:02:29.702Z,6.54
2019-03-08T04:03:35.951Z,6.53
2019-03-08T04:04:42.918Z,6.54
2019-03-08T04:05:50.123Z,6.52
2019-03-08T04:06:58.079Z,6.52
2019-03-08T04:08:06.205Z,6.50
2019-03-08T04:09:42.290Z,6.49
2019-03-08T04:11:14.229Z,6.46
2019-03-08T04:12:39.540Z,6.42
2019-03-08T04:13:59.831Z,6.41
2019-03-08T04:15:11.684Z,6.39
2019-03-08T04:16:19.234Z,6.38
2019-03-08T04:17:26.020Z,6.37
2019-03-08T04:18:32.883Z,6.36
2019-03-08T04:19:40.165Z,6.34
2019-03-08T04:20:47.965Z,6.32
2019-03-08T04:21:56.253Z,6.33
2019-03-08T04:23:06.051Z,6.32
2019-03-08T04:24:12.692Z,6.34
2019-03-08T04:25:19.701Z,6.35
2019-03-08T04:26:26.338Z,6.35
2019-03-08T04:27:37.874Z,6.35
2019-03-08T04:28:45.329Z,6.34
2019-03-08T04:29:56.602Z,6.32
2019-03-08T04:31:04.149Z,6.31
2019-03-08T04:32:12.099Z,6.31
2019-03-08T04:33:20.368Z,6.29
2019-03-08T04:34:28.051Z,6.28
2019-03-08T04:35:35.946Z,6.26
2019-03-08T04:36:43.306Z,6.24
2019-03-08T04:37:50.569Z,6.25
2019-03-08T04:38:57.271Z,6.25
2019-03-08T04:40:05.852Z,6.21
2019-03-08T04:41:12.833Z,6.20
2019-03-08T04:42:19.274Z,6.20
2019-03-08T04:43:27.360Z,6.20
2019-03-08T04:44:34.096Z,6.21
2019-03-08T04:45:41.401Z,6.26
2019-03-08T04:46:48.946Z,6.25
2019-03-08T04:47:55.998Z,6.27
2019-03-08T04:49:02.687Z,6.29
2019-03-08T04:50:16.281Z,6.25
2019-03-08T04:51:22.876Z,6.27
2019-03-08T04:52:29.217Z,6.27
2019-03-08T04:53:36.719Z,6.28
2019-03-08T04:54:45.469Z,6.28
2019-03-08T04:55:52.566Z,6.32
2019-03-08T04:56:59.756Z,6.35
2019-03-08T04:58:07.012Z,6.33
2019-03-08T04:59:14.425Z,6.35
2019-03-08T05:00:22.317Z,6.34
2019-03-08T05:01:29.275Z,6.34
2019-03-08T05:02:36.533Z,6.33
2019-03-08T05:03:45.104Z,6.33
2019-03-08T05:04:51.649Z,6.34
2019-03-08T05:06:00.758Z,6.34
2019-03-08T05:07:07.342Z,6.31
2019-03-08T05:08:14.216Z,6.32
2019-03-08T05:09:21.507Z,6.32
2019-03-08T05:10:27.920Z,6.32
2019-03-08T05:11:34.418Z,6.28
2019-03-08T05:12:41.786Z,6.29
2019-03-08T05:13:48.781Z,6.28
2019-03-08T05:15:06.338Z,6.29
2019-03-08T05:16:13.306Z,6.31
2019-03-08T05:17:21.959Z,6.33
2019-03-08T05:18:30.603Z,6.29
2019-03-08T05:19:38.979Z,6.28
2019-03-08T05:20:46.209Z,6.27
2019-03-08T05:22:13.671Z,6.25
2019-03-08T05:23:20.288Z,6.23
2019-03-08T05:24:29.653Z,6.23
2019-03-08T05:25:36.568Z,6.24
2019-03-08T05:26:43.208Z,6.27
2019-03-08T05:27:49.947Z,6.29
2019-03-08T05:28:57.404Z,6.29
2019-03-08T05:30:07.617Z,6.32
2019-03-08T05:31:16.108Z,6.34
2019-03-08T05:32:23.004Z,6.36
2019-03-08T05:33:30.097Z,6.37
2019-03-08T05:34:37.108Z,6.39
2019-03-08T05:35:58.029Z,6.40
2019-03-08T05:37:05.631Z,6.41
2019-03-08T05:38:12.973Z,6.43
2019-03-08T05:39:20.460Z,6.43
2019-03-08T05:40:27.371Z,6.44
2019-03-08T05:41:34.381Z,6.44
2019-03-08T05:42:41.643Z,6.46
2019-03-08T05:43:48.448Z,6.46
2019-03-08T05:44:56.774Z,6.49
2019-03-08T05:46:03.738Z,6.52
2019-03-08T05:47:10.951Z,6.52
2019-03-08T05:48:19.302Z,6.54
2019-03-08T05:49:26.764Z,6.56
2019-03-08T05:50:35.064Z,6.60
2019-03-08T05:51:43.531Z,6.66
2019-03-08T05:52:50.472Z,6.69
2019-03-08T05:53:58.789Z,6.70
2019-03-08T05:55:08.284Z,6.73
2019-03-08T05:56:15.207Z,6.77
2019-03-08T05:57:23.606Z,6.77
2019-03-08T05:58:30.333Z,6.77
2019-03-08T05:59:37.620Z,6.77
2019-03-08T06:00:45.731Z,6.78
2019-03-08T06:01:53.162Z,6.79
2019-03-08T06:03:01.471Z,6.82
2019-03-08T06:04:10.100Z,6.83
2019-03-08T06:05:17.262Z,6.88
2019-03-08T06:06:26.484Z,6.91
2019-03-08T06:07:33.645Z,6.96
2019-03-08T06:08:40.807Z,7.05
2019-03-08T06:09:48.049Z,7.15
2019-03-08T06:10:54.245Z,7.26
2019-03-08T06:12:05.254Z,7.40
2019-03-08T06:13:12.267Z,7.57
2019-03-08T06:14:19.432Z,7.70
2019-03-08T06:15:26.697Z,7.80
2019-03-08T06:16:34.497Z,7.88
2019-03-08T06:17:42.865Z,8.06
2019-03-08T06:18:50.722Z,8.22
2019-03-08T06:19:59.226Z,8.23
2019-03-08T06:21:06.061Z,8.20
2019-03-08T06:22:14.745Z,8.16
2019-03-08T06:23:21.908Z,8.08
2019-03-08T06:24:29.405Z,8.00
2019-03-08T06:25:36.887Z,8.03
2019-03-08T06:26:45.415Z,8.12
2019-03-08T06:27:51.706Z,8.21
2019-03-08T06:29:01.116Z,8.22
2019-03-08T06:30:11.643Z,8.35
2019-03-08T06:31:18.845Z,8.50
2019-03-08T06:32:25.499Z,8.61
2019-03-08T06:33:33.897Z,8.75
2019-03-08T06:34:41.287Z,8.84
2019-03-08T06:35:49.408Z,8.94
2019-03-08T06:36:56.151Z,9.05
2019-03-08T06:38:03.619Z,9.32
2019-03-08T06:39:10.466Z,9.32
2019-03-08T06:40:18.595Z,9.33
2019-03-08T06:41:35.720Z,9.24
2019-03-08T06:42:37.929Z,9.22
2019-03-08T06:43:48.372Z,9.23
2019-03-08T06:44:55.980Z,9.17
2019-03-08T06:46:03.989Z,9.11
2019-03-08T06:47:11.699Z,9.24
2019-03-08T06:48:20.006Z,9.33
2019-03-08T06:49:27.020Z,9.45
2019-03-08T06:50:33.609Z,9.51
2019-03-08T06:51:40.257Z,9.51
2019-03-08T06:52:47.269Z,9.44
2019-03-08T06:53:53.446Z,9.09
2019-03-08T06:55:01.300Z,9.13
2019-03-08T06:56:55.387Z,9.13
2019-03-08T06:58:07.035Z,9.08
2019-03-08T06:59:31.754Z,8.95
2019-03-08T07:00:43.665Z,8.93
2019-03-08T07:01:50.168Z,8.84
2019-03-08T07:02:57.998Z,8.79
2019-03-08T07:04:04.680Z,8.74
2019-03-08T07:05:12.078Z,8.72
2019-03-08T07:06:18.634Z,8.73
2019-03-08T07:07:26.497Z,8.70
2019-03-08T07:08:34.700Z,8.66
2019-03-08T07:09:42.286Z,8.67
2019-03-08T07:10:49.616Z,8.70
2019-03-08T07:11:56.905Z,8.72
2019-03-08T07:13:04.082Z,8.77
2019-03-08T07:14:11.670Z,8.79
2019-03-08T07:15:20.999Z,8.80
2019-03-08T07:16:27.387Z,8.80
2019-03-08T07:17:34.400Z,8.81
2019-03-08T07:18:41.095Z,8.82
2019-03-08T07:19:49.265Z,8.86
2019-03-08T07:20:57.938Z,8.90
2019-03-08T07:22:06.787Z,8.94
2019-03-08T07:23:28.555Z,8.96
2019-03-08T07:24:49.189Z,8.95
2019-03-08T07:26:14.285Z,8.99
2019-03-08T07:27:25.801Z,9.01
2019-03-08T07:28:39.506Z,9.07
2019-03-08T07:29:46.241Z,9.13
2019-03-08T07:31:10.330Z,9.24
2019-03-08T07:32:29.276Z,9.35
2019-03-08T07:33:38.688Z,9.51
2019-03-08T07:34:49.389Z,9.62
2019-03-08T07:36:01.037Z,9.70
2019-03-08T07:37:09.119Z,9.83
2019-03-08T07:38:27.119Z,9.96
2019-03-08T07:39:51.339Z,10.06
2019-03-08T07:41:03.226Z,10.20
2019-03-08T07:42:21.683Z,10.35
2019-03-08T07:43:39.991Z,10.44
2019-03-08T07:44:54.599Z,10.49
2019-03-08T07:46:12.667Z,10.48
2019-03-08T07:47:38.256Z,10.50
2019-03-08T07:48:51.710Z,10.53
2019-03-08T07:50:03.418Z,10.51
2019-03-08T07:51:17.819Z,10.51
2019-03-08T07:52:33.198Z,10.52
2019-03-08T07:53:44.278Z,10.60
2019-03-08T07:54:58.641Z,10.75
2019-03-08T07:56:06.334Z,10.75
2019-03-08T07:57:31.169Z,10.75
2019-03-08T07:58:47.617Z,10.75
2019-03-08T08:00:33.146Z,10.72
2019-03-08T08:01:45.267Z,10.72
2019-03-08T08:03:10.810Z,10.61
2019-03-08T08:04:19.144Z,10.61
2019-03-08T08:05:27.385Z,10.70
2019-03-08T08:06:47.925Z,10.65
2019-03-08T08:07:56.019Z,10.65
2019-03-08T08:09:07.667Z,10.55
2019-03-08T08:10:19.229Z,10.55
2019-03-08T08:11:45.438Z,10.39
2019-03-08T08:13:11.727Z,10.54
2019-03-08T08:14:20.416Z,10.50
2019-03-08T08:15:28.837Z,10.50
2019-03-08T08:16:51.879Z,10.51
2019-03-08T08:18:02.785Z,10.61
2019-03-08T08:19:26.305Z,10.63
2019-03-08T08:20:37.269Z,10.65
2019-03-08T08:22:01.797Z,10.59
2019-03-08T08:23:10.626Z,10.59
2019-03-08T08:24:22.029Z,10.62
2019-03-08T08:25:36.709Z,10.62
2019-03-08T08:28:10.206Z,10.71
2019-03-08T08:29:35.223Z,10.71
2019-03-08T08:30:43.969Z,10.62
2019-03-08T08:32:00.849Z,10.87
2019-03-08T08:33:09.699Z,10.87
2019-03-08T08:34:17.994Z,11.08
2019-03-08T08:35:28.679Z,11.08
2019-03-08T08:36:42.345Z,11.21
2019-03-08T08:37:53.089Z,11.37
2019-03-08T08:39:00.988Z,11.37
2019-03-08T08:40:27.760Z,11.39
2019-03-08T08:41:44.748Z,11.54
2019-03-08T08:42:54.167Z,11.52
2019-03-08T08:44:14.952Z,11.49
2019-03-08T08:45:26.469Z,11.45
2019-03-08T08:46:44.140Z,11.45
2019-03-08T08:47:50.170Z,11.31
2019-03-08T08:49:16.158Z,11.31
2019-03-08T08:50:40.089Z,11.14
2019-03-08T08:51:59.242Z,11.17
2019-03-08T08:53:23.217Z,11.07
2019-03-08T08:54:36.327Z,11.08
2019-03-08T08:55:47.210Z,11.08
2019-03-08T08:56:54.749Z,11.08
2019-03-08T08:58:17.380Z,10.87
2019-03-08T08:59:25.287Z,10.98
2019-03-08T09:00:37.427Z,11.11
2019-03-08T09:01:59.192Z,11.15
2019-03-08T09:03:21.919Z,11.18
2019-03-08T09:04:36.470Z,11.10
2019-03-08T09:05:44.367Z,11.01
2019-03-08T09:06:52.400Z,11.03
2019-03-08T09:08:00.540Z,10.93
2019-03-08T09:09:19.450Z,11.00
2019-03-08T09:10:43.908Z,10.96
2019-03-08T09:11:53.124Z,10.85
2019-03-08T09:13:13.029Z,10.85
2019-03-08T09:14:33.471Z,10.97
2019-03-08T09:15:47.650Z,11.00
2019-03-08T09:16:55.330Z,10.97
2019-03-08T09:18:01.651Z,11.10
2019-03-08T09:19:09.985Z,11.02
2019-03-08T09:20:24.723Z,11.30
2019-03-08T09:21:33.742Z,11.36
2019-03-08T09:22:48.212Z,11.44
2019-03-08T09:23:58.402Z,11.54
2019-03-08T09:25:24.132Z,11.47
2019-03-08T09:26:48.988Z,11.68
2019-03-08T09:28:04.078Z,11.67
2019-03-08T09:29:11.673Z,11.67
2019-03-08T09:30:25.172Z,11.69
2019-03-08T09:31:31.029Z,11.69
2019-03-08T09:32:45.477Z,11.75
2019-03-08T09:34:04.101Z,11.83
2019-03-08T09:35:18.151Z,11.79
2019-03-08T09:36:27.479Z,11.83
2019-03-08T09:37:41.930Z,11.88
2019-03-08T09:38:50.897Z,11.88
2019-03-08T09:39:56.471Z,11.90
2019-03-08T09:41:14.713Z,11.86
2019-03-08T09:42:28.113Z,11.86
2019-03-08T09:43:38.768Z,11.91
2019-03-08T09:45:02.843Z,11.91
2019-03-08T09:46:27.797Z,11.89
2019-03-08T09:47:41.659Z,11.95
2019-03-08T09:48:54.108Z,12.04
2019-03-08T09:50:11.941Z,12.08
2019-03-08T09:51:31.960Z,12.03
2019-03-08T09:52:42.413Z,11.96
2019-03-08T09:53:56.253Z,11.93
2019-03-08T09:55:10.134Z,11.84
2019-03-08T09:56:26.984Z,11.78
2019-03-08T09:57:35.491Z,11.78
2019-03-08T09:58:56.131Z,11.72
2019-03-08T10:00:06.892Z,11.63
2019-03-08T10:01:30.684Z,11.59
2019-03-08T10:02:47.503Z,11.54
2019-03-08T10:03:59.743Z,11.45
2019-03-08T10:05:08.461Z,11.31
2019-03-08T10:06:25.194Z,11.17
2019-03-08T10:07:36.517Z,11.18
2019-03-08T10:08:45.431Z,11.14
2019-03-08T10:09:52.276Z,11.12
2019-03-08T10:11:02.092Z,11.14
2019-03-08T10:12:15.831Z,11.16
2019-03-08T10:13:25.612Z,11.17
2019-03-08T10:14:52.172Z,11.20
2019-03-08T10:16:01.084Z,11.19
2019-03-08T10:17:21.486Z,11.11
2019-03-08T10:18:33.675Z,11.03
2019-03-08T10:19:48.916Z,10.95
2019-03-08T10:21:00.354Z,10.95
2019-03-08T10:22:14.350Z,10.97
2019-03-08T10:23:35.779Z,10.87
2019-03-08T10:24:44.925Z,10.94
2019-03-08T10:26:09.156Z,10.86
2019-03-08T10:27:38.149Z,10.67
2019-03-08T10:28:40.252Z,10.67
2019-03-08T10:29:50.704Z,10.53
2019-03-08T10:31:14.314Z,10.53
2019-03-08T10:32:23.835Z,10.39
2019-03-08T10:33:30.795Z,10.31
2019-03-08T10:34:37.234Z,10.31
2019-03-08T10:35:44.832Z,10.19
2019-03-08T10:36:58.181Z,10.11
2019-03-08T10:38:22.746Z,10.04
2019-03-08T10:39:31.062Z,9.99
2019-03-08T10:40:44.669Z,9.99
2019-03-08T10:41:54.185Z,9.96
2019-03-08T10:43:02.235Z,9.84
2019-03-08T10:44:12.955Z,9.94
2019-03-08T10:45:25.643Z,9.94
2019-03-08T10:46:35.795Z,9.92
2019-03-08T10:47:59.731Z,9.80
2019-03-08T10:49:17.464Z,9.80
2019-03-08T10:50:32.152Z,9.76
2019-03-08T10:51:45.682Z,9.69
2019-03-08T10:52:53.266Z,9.63
2019-03-08T10:54:18.342Z,9.61
2019-03-08T10:55:32.116Z,9.54
2019-03-08T10:56:43.608Z,9.51
2019-03-08T10:58:01.584Z,9.52
2019-03-08T10:59:18.216Z,9.51
2019-03-08T11:00:50.118Z,9.48
2019-03-08T11:02:03.029Z,9.47
2019-03-08T11:03:17.584Z,9.47
2019-03-08T11:04:32.572Z,9.49
2019-03-08T11:05:47.865Z,9.49
2019-03-08T11:06:55.803Z,9.51
2019-03-08T11:08:06.273Z,9.53
2019-03-08T11:09:24.056Z,9.55
2019-03-08T11:10:32.466Z,9.57
2019-03-08T11:11:47.436Z,9.57
2019-03-08T11:12:52.855Z,9.57
2019-03-08T11:14:06.086Z,9.58
2019-03-08T11:15:31.386Z,9.60
2019-03-08T11:16:52.124Z,9.58
2019-03-08T11:18:16.139Z,9.61
2019-03-08T11:19:27.985Z,9.66
2019-03-08T11:20:51.383Z,9.72
2019-03-08T11:22:14.916Z,9.76
2019-03-08T11:23:38.268Z,9.81
2019-03-08T11:24:50.227Z,9.85
2019-03-08T11:26:05.256Z,9.87
2019-03-08T11:27:20.196Z,9.90
2019-03-08T11:28:28.374Z,9.92
2019-03-08T11:29:41.315Z,9.93
2019-03-08T11:30:54.020Z,9.99
2019-03-08T11:32:01.386Z,10.02
2019-03-08T11:33:19.626Z,10.11
2019-03-08T11:34:33.954Z,10.11
2019-03-08T11:35:50.657Z,10.15
2019-03-08T11:37:11.286Z,10.21
2019-03-08T11:38:31.344Z,10.29
2019-03-08T11:39:48.543Z,10.36
2019-03-08T11:40:57.175Z,10.42
2019-03-08T11:42:14.373Z,10.43
2019-03-08T11:43:28.395Z,10.45
2019-03-08T11:44:34.365Z,10.46
2019-03-08T11:45:43.492Z,10.52
2019-03-08T11:46:53.724Z,10.52
2019-03-08T11:48:07.147Z,10.48
2019-03-08T11:49:16.416Z,10.50
2019-03-08T11:50:41.908Z,10.47
2019-03-08T11:51:55.468Z,10.45
2019-03-08T11:53:19.697Z,10.47
2019-03-08T11:54:29.700Z,10.49
2019-03-08T11:55:39.027Z,10.46
2019-03-08T11:56:55.699Z,10.46
2019-03-08T11:58:08.434Z,10.43
2019-03-08T11:59:16.775Z,10.49
2019-03-08T12:00:25.887Z,10.52
2019-03-08T12:01:50.036Z,10.59
2019-03-08T12:03:05.396Z,10.66
2019-03-08T12:04:31.689Z,10.68
2019-03-08T12:05:40.519Z,10.70
2019-03-08T12:07:00.915Z,10.72
2019-03-08T12:08:12.487Z,10.75
2019-03-08T12:09:20.856Z,10.80
2019-03-08T12:10:34.744Z,10.86
2019-03-08T12:11:44.448Z,10.86
2019-03-08T12:13:01.768Z,10.95
2019-03-08T12:14:12.348Z,10.95
2019-03-08T12:15:32.955Z,10.88
2019-03-08T12:16:57.737Z,10.88
2019-03-08T12:18:11.336Z,10.98
2019-03-08T12:19:17.575Z,10.98
2019-03-08T12:20:29.396Z,10.94
2019-03-08T12:21:40.689Z,10.94
2019-03-08T12:22:55.187Z,10.91
2019-03-08T12:24:08.892Z,10.71
2019-03-08T12:25:19.828Z,10.77
2019-03-08T12:26:31.538Z,10.74
2019-03-08T12:27:57.789Z,10.60
2019-03-08T12:29:05.680Z,10.66
2019-03-08T12:30:15.985Z,10.66
2019-03-08T12:31:39.018Z,10.66
2019-03-08T12:32:58.729Z,10.64
2019-03-08T12:34:23.312Z,10.63
2019-03-08T12:36:14.655Z,10.60
2019-03-08T12:37:31.784Z,10.60
2019-03-08T12:38:44.584Z,10.61
2019-03-08T12:40:05.705Z,10.73
2019-03-08T12:41:22.230Z,10.73
2019-03-08T12:42:50.314Z,10.85
2019-03-08T12:44:17.556Z,10.97
2019-03-08T12:45:41.097Z,11.06
2019-03-08T12:46:49.929Z,11.06
2019-03-08T12:47:59.670Z,11.02
2019-03-08T12:49:11.337Z,10.98
2019-03-08T12:50:22.665Z,10.83
2019-03-08T12:51:47.745Z,10.78
2019-03-08T12:53:12.412Z,10.78
2019-03-08T12:54:31.590Z,10.74
2019-03-08T12:55:37.857Z,10.74
2019-03-08T12:56:43.544Z,10.74
2019-03-08T12:58:02.550Z,10.74
2019-03-08T12:59:27.076Z,10.66
2019-03-08T13:00:49.889Z,10.68
2019-03-08T13:02:11.157Z,10.68
2019-03-08T13:03:22.756Z,10.76
2019-03-08T13:04:36.590Z,10.76
2019-03-08T13:05:53.457Z,10.75
2019-03-08T13:07:19.470Z,10.76
2019-03-08T13:08:36.370Z,10.76
2019-03-08T13:09:47.850Z,10.67
2019-03-08T13:10:54.397Z,10.75
2019-03-08T13:12:02.429Z,10.75
2019-03-08T13:13:13.134Z,10.75
2019-03-08T13:14:21.764Z,10.75
2019-03-08T13:15:34.729Z,10.75
2019-03-08T13:16:42.152Z,10.73
2019-03-08T13:17:49.930Z,10.72
2019-03-08T13:18:56.197Z,10.72
2019-03-08T13:20:03.137Z,10.75
2019-03-08T13:21:11.437Z,10.81
2019-03-08T13:22:17.717Z,10.87
2019-03-08T13:23:23.951Z,10.87
2019-03-08T13:24:30.910Z,10.90
2019-03-08T13:25:37.111Z,10.90
2019-03-08T13:26:44.500Z,10.97
2019-03-08T13:27:52.522Z,10.97
2019-03-08T13:28:58.594Z,10.96
2019-03-08T13:30:16.238Z,10.96
2019-03-08T13:31:22.920Z,10.84
2019-03-08T13:32:29.350Z,10.99
2019-03-08T13:33:35.250Z,10.96
2019-03-08T13:34:42.977Z,10.96
2019-03-08T13:35:50.580Z,10.96
2019-03-08T13:36:59.079Z,10.89
2019-03-08T13:38:06.950Z,10.89
2019-03-08T13:39:14.631Z,10.87
2019-03-08T13:40:21.054Z,10.87
2019-03-08T13:41:28.480Z,10.85
2019-03-08T13:42:35.091Z,10.80
2019-03-08T13:43:43.111Z,10.67
2019-03-08T13:44:51.160Z,10.76
2019-03-08T13:45:57.231Z,10.60
2019-03-08T13:47:05.311Z,10.65
2019-03-08T13:48:13.999Z,10.49
2019-03-08T13:49:20.798Z,10.56
2019-03-08T13:50:26.884Z,10.56
2019-03-08T13:51:33.206Z,10.52
2019-03-08T13:52:40.247Z,10.41
2019-03-08T13:53:47.012Z,10.41
2019-03-08T13:54:53.713Z,10.36
2019-03-08T13:56:02.133Z,10.32
2019-03-08T13:57:11.517Z,10.29
2019-03-08T13:58:18.752Z,10.19
2019-03-08T13:59:25.681Z,10.19
2019-03-08T14:00:34.413Z,10.17
2019-03-08T14:01:41.771Z,10.15
2019-03-08T14:02:48.791Z,10.13
2019-03-08T14:03:55.352Z,10.11
2019-03-08T14:05:01.924Z,10.13
2019-03-08T14:06:08.418Z,10.10
2019-03-08T14:07:16.579Z,10.05
2019-03-08T14:08:22.914Z,9.99
2019-03-08T14:09:30.153Z,9.96
2019-03-08T14:10:37.978Z,9.92
2019-03-08T14:11:44.459Z,9.92
2019-03-08T14:12:51.011Z,9.94
2019-03-08T14:13:57.819Z,9.97
2019-03-08T14:15:04.259Z,9.97
2019-03-08T14:16:11.512Z,9.89
2019-03-08T14:17:19.622Z,9.86
2019-03-08T14:18:25.719Z,9.77
2019-03-08T14:19:32.680Z,9.64
2019-03-08T14:20:38.940Z,9.58
2019-03-08T14:21:45.152Z,9.52
2019-03-08T14:22:51.561Z,9.48
2019-03-08T14:23:58.560Z,9.44
2019-03-08T14:25:04.932Z,9.42
2019-03-08T14:26:11.320Z,9.42
2019-03-08T14:27:18.113Z,9.41
2019-03-08T14:28:25.345Z,9.44
2019-03-08T14:29:32.120Z,9.47
2019-03-08T14:30:58.274Z,9.51
2019-03-08T14:32:05.179Z,9.49
2019-03-08T14:33:13.681Z,9.51
2019-03-08T14:34:20.859Z,9.57
2019-03-08T14:35:29.803Z,9.58
2019-03-08T14:36:47.977Z,9.54
2019-03-08T14:37:56.054Z,9.60
2019-03-08T14:39:07.975Z,9.60
2019-03-08T14:40:20.735Z,9.58
2019-03-08T14:41:35.379Z,9.58
2019-03-08T14:42:46.213Z,9.55
2019-03-08T14:44:11.773Z,9.57
2019-03-08T14:45:23.019Z,9.56
2019-03-08T14:46:31.120Z,9.56
2019-03-08T14:47:37.794Z,9.56
2019-03-08T14:48:46.397Z,9.58
2019-03-08T14:49:55.214Z,9.58
2019-03-08T14:51:00.029Z,9.52
2019-03-08T14:52:07.072Z,9.49
2019-03-08T14:53:13.601Z,9.48
2019-03-08T14:54:20.194Z,9.49
2019-03-08T14:55:27.560Z,9.50
2019-03-08T14:56:35.910Z,9.52
2019-03-08T14:57:42.261Z,9.52
2019-03-08T14:58:48.460Z,9.53
2019-03-08T14:59:54.921Z,9.52
2019-03-08T15:01:02.198Z,9.50
2019-03-08T15:02:13.707Z,9.51
2019-03-08T15:03:20.201Z,9.55
2019-03-08T15:04:29.486Z,9.56
2019-03-08T15:05:34.734Z,9.58
2019-03-08T15:06:41.340Z,9.60
2019-03-08T15:07:47.749Z,9.61
2019-03-08T15:08:55.037Z,9.60
2019-03-08T15:10:06.193Z,9.60
2019-03-08T15:11:11.780Z,9.59
2019-03-08T15:12:18.202Z,9.60
2019-03-08T15:13:25.845Z,9.57
2019-03-08T15:14:33.910Z,9.55
2019-03-08T15:15:41.202Z,9.51
2019-03-08T15:16:48.542Z,9.51
2019-03-08T15:17:55.316Z,9.54
2019-03-08T15:19:03.806Z,9.55
2019-03-08T15:20:20.781Z,9.58
2019-03-08T15:21:27.113Z,9.61
2019-03-08T15:22:34.033Z,9.66
2019-03-08T15:23:43.320Z,9.70
2019-03-08T15:24:50.781Z,9.74
2019-03-08T15:25:57.289Z,9.80
2019-03-08T15:27:04.501Z,9.84
2019-03-08T15:28:15.275Z,9.86
2019-03-08T15:29:24.635Z,9.86
2019-03-08T15:30:32.077Z,9.85
2019-03-08T15:31:38.935Z,9.82
2019-03-08T15:32:45.514Z,9.82